首页
METAR-TAF:

METAR-TAF

机场 :

康瑟尔布拉夫斯, 艾奥瓦州, 美国

纬度: 41-16N, 经度: 095-46W, 海拔: 382米

当前天气观测

该预报发布于30分钟前的21:15 UTC
风速10节,风向南转南东
温度 27°C
湿度 66%
气压 1007 hPa
能見度: 16.1公里
少量云层高于4600英尺
少量云层高于6500英尺

METAR: KCBF 202115Z AUTO 16010KT 10SM FEW046 FEW065 27/20 A2973 RMK AO2

时间: 16:45 (21:45 UTC)


TAF: 丢失

超过4000个机场的气象观测和天气预报(METAR&TAF报告)。

可查询的气象台以黄色和红色小点在地图上表示。

将鼠标移到小点上方,可查看气象台名称。

然后点击查看天气观测和预报。

如需切换地图:点击带黑十字的绿色按钮放大地图;点击带横线的绿色按钮缩小地图;或者点击绿色箭头查看邻近地区的地图。


METAR-TAF: